Aérodrome :
LOGIN :

S'inscrire | Disclaimer

   EN    FR    IT 

 










Légende :    VFR   VFR Marginal   IFR   IFR Intensif   IFR Très Intensif
Visi : 
Plafond : 
>= 8 km
>= 3000ft
5 à 8 km
1000 à 3000 ft
1500m à 5 km
500 à 1000 ft
800 à 1500m
200 à 500 ft
< 800m
< 200 ft
Symboles :   Orages  Brouillard  Fortes neiges  Fortes précipitations  Vent > 20 kt
SIGMETs :   Divers  Orages  Givrage  Turbulence  Onde Orograph.  Cendres Volcan.






- Altitude de l'aérodrome : 425 ft
- Code IATA : DTM


EDLW - Dortmund

DERNIER METAR :
  • 291850Z 20015KT 9999 OVC015 01/M01 Q1022

METARs EXPIRÉS :
  • 291820Z 21012KT 9999 BKN016 OVC019 02/M02 Q1023
  • 291750Z 21012KT 9999 OVC018 01/M02 Q1023
  • 291720Z 20014KT 9999 OVC020 01/M02 Q1023
  • 291650Z 21013KT 9999 OVC018 01/M02 Q1023
  • 291620Z 20010KT 9999 OVC020 01/M02 Q1024

TAF TAF EDLW
Valide du 29 à 18h jusqu'au 30 à 18h UTC


291700Z 2918/3018 23015KT 9999 BKN015
TEMPO 2921/3009 4000 DZRA BKN008
TEMPO 2921/3015 26015G25KT
PROB30
TEMPO 3011/3016 28020G30KT SHRA BKN020TCU
BECMG 3015/3018 28010KT



MET'MAP, la Météo Aéronautique d'un coup d'oeil ! - Copyright ORBIFLY Décembre 2007 - Disclaimer

ORBIFLY MET'MAP TEAM :

Programmation & Développement : Alexandra Zaïnal
Sur une idée originale de : Baudouin d'Aumeries
Soutien technique & logistique : Manuel Goepfert
Assistance : Marc-Olivier Méhu




SOURCES & CREDITS :

   NOAA